createdAt,value
2022-11-20T00:00:59.001Z,90
2022-11-20T00:04:55.283Z,90
2022-11-20T00:06:59.279Z,90
2022-11-20T00:08:59.731Z,90
2022-11-20T00:10:58.349Z,91
2022-11-20T00:12:59.869Z,90
2022-11-20T00:17:00.416Z,90
2022-11-20T00:20:59.603Z,90
2022-11-20T00:22:57.970Z,91
2022-11-20T00:25:03.882Z,91
2022-11-20T00:29:00.558Z,90
2022-11-20T00:30:58.611Z,91
2022-11-20T00:34:57.588Z,90
2022-11-20T00:36:59.251Z,90
2022-11-20T00:38:59.624Z,90
2022-11-20T00:40:57.133Z,90
2022-11-20T00:42:59.782Z,90
2022-11-20T00:46:58.566Z,90
2022-11-20T00:48:59.806Z,90
2022-11-20T00:50:59.322Z,90
2022-11-20T00:55:00.396Z,90
2022-11-20T00:59:00.591Z,90
2022-11-20T01:01:00.445Z,90
2022-11-20T01:04:57.167Z,90
2022-11-20T01:10:59.091Z,90
2022-11-20T01:15:00.564Z,90
2022-11-20T01:16:59.403Z,90
2022-11-20T01:18:59.830Z,90
2022-11-20T01:22:57.202Z,90
2022-11-20T01:24:59.903Z,90
2022-11-20T01:28:59.250Z,90
2022-11-20T01:30:59.838Z,90
2022-11-20T01:32:59.668Z,90
2022-11-20T01:34:59.701Z,90
2022-11-20T01:36:59.217Z,90
2022-11-20T01:41:02.251Z,90
2022-11-20T01:43:00.051Z,90
2022-11-20T01:44:59.635Z,90
2022-11-20T01:46:58.826Z,90
2022-11-20T01:48:59.931Z,90
2022-11-20T01:52:57.105Z,90
2022-11-20T01:54:59.820Z,90
2022-11-20T01:56:59.725Z,90
2022-11-20T01:59:00.457Z,90
2022-11-20T02:02:59.920Z,90
2022-11-20T02:04:59.518Z,90
2022-11-20T02:07:00.210Z,90
2022-11-20T02:09:00.467Z,90
2022-11-20T02:10:57.509Z,90
2022-11-20T02:15:00.268Z,90
2022-11-20T02:16:59.372Z,90
2022-11-20T02:19:00.478Z,90
2022-11-20T02:20:59.822Z,90
2022-11-20T02:22:57.198Z,90
2022-11-20T02:24:59.855Z,90
2022-11-20T02:27:04.290Z,90
2022-11-20T02:29:00.391Z,90
2022-11-20T02:32:59.837Z,90
2022-11-20T02:35:00.120Z,90
2022-11-20T02:38:59.130Z,90
2022-11-20T02:40:58.053Z,90
2022-11-20T02:42:58.830Z,90
2022-11-20T02:44:59.766Z,90
2022-11-20T02:46:58.416Z,90
2022-11-20T02:52:58.328Z,90
2022-11-20T02:54:59.259Z,90
2022-11-20T02:56:59.915Z,90
2022-11-20T02:58:56.299Z,90
2022-11-20T03:00:59.812Z,89
2022-11-20T03:03:00.005Z,89
2022-11-20T03:05:00.442Z,89
2022-11-20T03:06:57.866Z,89
2022-11-20T03:08:59.674Z,89
2022-11-20T03:10:57.020Z,89
2022-11-20T03:12:59.679Z,89
2022-11-20T03:14:59.739Z,89
2022-11-20T03:16:57.616Z,89
2022-11-20T03:18:59.272Z,89
2022-11-20T03:23:00.406Z,89
2022-11-20T03:25:00.608Z,89
2022-11-20T03:27:00.509Z,89
2022-11-20T03:29:00.455Z,89
2022-11-20T03:32:59.664Z,89
2022-11-20T03:34:59.401Z,89
2022-11-20T03:36:59.783Z,89
2022-11-20T03:40:57.514Z,89
2022-11-20T03:46:58.864Z,89
2022-11-20T03:50:59.980Z,89
2022-11-20T03:53:03.402Z,89
2022-11-20T03:54:59.827Z,89
2022-11-20T04:05:00.776Z,89
2022-11-20T04:07:00.631Z,89
2022-11-20T04:08:59.652Z,89
2022-11-20T04:11:00.735Z,89
2022-11-20T04:13:00.050Z,89
2022-11-20T04:15:01.679Z,89
2022-11-20T04:16:58.618Z,89
2022-11-20T04:19:00.602Z,89
2022-11-20T04:20:59.290Z,89
2022-11-20T04:22:57.972Z,89
2022-11-20T04:24:59.831Z,89
2022-11-20T04:28:57.713Z,89
2022-11-20T04:30:59.803Z,89
2022-11-20T04:33:00.461Z,89
2022-11-20T04:34:57.200Z,89
2022-11-20T04:36:59.718Z,89
2022-11-20T04:38:59.919Z,89
2022-11-20T04:41:00.563Z,89
2022-11-20T04:43:00.359Z,89
2022-11-20T04:47:00.758Z,89
2022-11-20T04:48:59.717Z,89
2022-11-20T04:50:59.534Z,90
2022-11-20T04:53:00.416Z,90
2022-11-20T04:55:00.426Z,90
2022-11-20T04:56:59.916Z,90
2022-11-20T04:58:58.538Z,90
2022-11-20T05:00:59.918Z,90
2022-11-20T05:04:55.812Z,90
2022-11-20T05:06:59.881Z,90
2022-11-20T05:09:00.565Z,90
2022-11-20T05:10:59.322Z,90
2022-11-20T05:17:00.797Z,89
2022-11-20T05:22:57.213Z,89
2022-11-20T05:26:59.948Z,89
2022-11-20T05:28:59.291Z,89
2022-11-20T05:30:59.301Z,89
2022-11-20T05:35:00.663Z,89
2022-11-20T05:39:01.681Z,89
2022-11-20T05:40:59.375Z,88
2022-11-20T05:43:03.410Z,89
2022-11-20T05:44:59.998Z,89
2022-11-20T05:47:00.693Z,89
2022-11-20T05:48:59.876Z,88
2022-11-20T05:53:00.466Z,89
2022-11-20T05:54:59.708Z,89
2022-11-20T05:59:00.533Z,88
2022-11-20T06:00:58.899Z,88
2022-11-20T06:03:00.138Z,88
2022-11-20T06:04:58.441Z,88
2022-11-20T06:06:59.886Z,88
2022-11-20T06:11:00.661Z,88
2022-11-20T06:12:59.674Z,88
2022-11-20T06:16:58.438Z,88
2022-11-20T06:19:00.572Z,88
2022-11-20T06:22:58.999Z,87
2022-11-20T06:24:59.739Z,87
2022-11-20T06:29:00.651Z,87
2022-11-20T06:31:00.051Z,87
2022-11-20T06:34:58.983Z,87
2022-11-20T06:37:00.153Z,87
2022-11-20T06:39:03.916Z,87
2022-11-20T06:40:59.833Z,87
2022-11-20T06:44:59.912Z,87
2022-11-20T06:46:57.271Z,87
2022-11-20T06:48:58.734Z,86
2022-11-20T06:52:59.331Z,86
2022-11-20T06:55:00.328Z,86
2022-11-20T06:56:59.868Z,86
2022-11-20T06:58:57.217Z,87
2022-11-20T07:04:59.013Z,86
2022-11-20T07:11:58.940Z,86
2022-11-20T07:13:51.219Z,86
2022-11-20T07:15:51.318Z,86
2022-11-20T07:17:51.412Z,86
2022-11-20T07:19:50.760Z,87
2022-11-20T07:21:51.718Z,87
2022-11-20T07:23:54.608Z,87
2022-11-20T07:25:51.393Z,86
2022-11-20T07:29:53.976Z,86
2022-11-20T07:31:51.591Z,86
2022-11-20T07:35:53.673Z,86
2022-11-20T07:37:51.416Z,86
2022-11-20T07:39:55.236Z,86
2022-11-20T07:41:52.664Z,86
2022-11-20T07:43:54.862Z,86
2022-11-20T07:45:52.030Z,87
2022-11-20T07:47:51.483Z,87
2022-11-20T07:49:51.356Z,87
2022-11-20T07:53:54.538Z,86
2022-11-20T07:55:51.185Z,86
2022-11-20T07:57:57.852Z,86
2022-11-20T07:59:51.523Z,86
2022-11-20T08:01:51.118Z,85
2022-11-20T08:03:48.508Z,86
2022-11-20T08:05:53.475Z,86
2022-11-20T08:07:51.389Z,86
2022-11-20T08:09:48.498Z,85
2022-11-20T08:11:51.641Z,85
2022-11-20T08:13:51.339Z,86
2022-11-20T08:15:54.518Z,86
2022-11-20T08:18:08.557Z,85
2022-11-20T08:19:51.403Z,85
2022-11-20T08:21:54.722Z,86
2022-11-20T08:23:51.472Z,85
2022-11-20T08:25:51.257Z,85
2022-11-20T08:27:54.383Z,85
2022-11-20T08:29:51.382Z,85
2022-11-20T08:31:51.672Z,85
2022-11-20T08:33:52.988Z,85
2022-11-20T08:35:54.345Z,85
2022-11-20T08:37:51.415Z,85
2022-11-20T08:39:52.954Z,85
2022-11-20T08:41:51.517Z,85
2022-11-20T08:43:51.415Z,85
2022-11-20T08:45:53.641Z,85
2022-11-20T08:47:57.863Z,85
2022-11-20T08:49:52.838Z,84
2022-11-20T08:51:51.519Z,85
2022-11-20T08:53:48.566Z,85
2022-11-20T08:55:51.159Z,85
2022-11-20T08:57:53.574Z,85
2022-11-20T09:00:05.384Z,85
2022-11-20T09:01:51.585Z,85
2022-11-20T09:03:54.617Z,84
2022-11-20T09:05:51.393Z,84
2022-11-20T09:07:54.199Z,84
2022-11-20T09:10:09.952Z,84
2022-11-20T09:11:54.379Z,84
2022-11-20T09:13:51.339Z,84
2022-11-20T09:15:54.317Z,84
2022-11-20T09:17:51.652Z,84
2022-11-20T09:19:51.369Z,84
2022-11-20T09:21:53.594Z,84
2022-11-20T09:23:53.519Z,84
2022-11-20T09:25:53.092Z,83
2022-11-20T09:27:53.222Z,84
2022-11-20T09:29:51.571Z,83
2022-11-20T09:31:54.253Z,84
2022-11-20T09:33:51.358Z,84
2022-11-20T09:35:54.460Z,83
2022-11-20T09:37:51.421Z,84
2022-11-20T09:39:51.450Z,84
2022-11-20T09:41:54.288Z,84
2022-11-20T09:43:51.113Z,84
2022-11-20T09:45:51.439Z,84
2022-11-20T09:49:54.551Z,83
2022-11-20T09:51:51.996Z,84
2022-11-20T09:53:53.260Z,83
2022-11-20T09:55:54.619Z,84
2022-11-20T09:57:51.122Z,84
2022-11-20T09:59:51.338Z,84
2022-11-20T10:01:53.518Z,84
2022-11-20T10:03:51.300Z,84
2022-11-20T10:07:53.268Z,83
2022-11-20T10:09:51.454Z,83
2022-11-20T10:11:51.628Z,83
2022-11-20T10:13:51.397Z,83
2022-11-20T10:15:51.286Z,83
2022-11-20T10:17:54.493Z,83
2022-11-20T10:19:51.891Z,82
2022-11-20T10:21:51.608Z,82
2022-11-20T10:23:52.212Z,82
2022-11-20T10:25:53.761Z,82
2022-11-20T10:27:53.705Z,82
2022-11-20T10:29:51.371Z,81
2022-11-20T10:34:10.897Z,82
2022-11-20T10:35:54.617Z,82
2022-11-20T10:37:53.035Z,82
2022-11-20T10:39:51.862Z,82
2022-11-20T10:41:53.886Z,81
2022-11-20T10:43:54.636Z,82
2022-11-20T10:45:51.447Z,82
2022-11-20T10:47:51.517Z,82
2022-11-20T10:49:51.461Z,82
2022-11-20T10:51:51.716Z,82
2022-11-20T10:53:53.527Z,81
2022-11-20T10:55:54.405Z,80
2022-11-20T10:57:51.487Z,78
2022-11-20T10:59:53.006Z,79
2022-11-20T11:01:54.982Z,81
2022-11-20T11:03:54.047Z,81
2022-11-20T11:05:54.046Z,81
2022-11-20T11:07:51.438Z,81
2022-11-20T11:09:51.415Z,82
2022-11-20T11:11:53.551Z,82
2022-11-20T11:13:51.312Z,82
2022-11-20T11:15:50.985Z,82
2022-11-20T11:17:51.434Z,82
2022-11-20T11:19:51.383Z,82
2022-11-20T11:21:55.316Z,82
2022-11-20T11:23:50.788Z,82
2022-11-20T11:25:54.566Z,82
2022-11-20T11:27:54.492Z,82
2022-11-20T11:29:51.276Z,82
2022-11-20T11:31:51.304Z,82
2022-11-20T11:35:51.906Z,82
2022-11-20T11:37:54.880Z,82
2022-11-20T11:40:16.331Z,82
2022-11-20T11:41:51.361Z,82
2022-11-20T11:43:51.244Z,81
2022-11-20T11:45:51.561Z,81
2022-11-20T11:47:54.599Z,81
2022-11-20T11:49:54.562Z,82
2022-11-20T11:51:51.658Z,82
2022-11-20T11:53:51.464Z,82
2022-11-20T11:55:51.413Z,82
2022-11-20T11:57:51.497Z,82
2022-11-20T11:59:51.425Z,82
2022-11-20T12:01:51.573Z,82
2022-11-20T12:03:53.988Z,82
2022-11-20T12:05:51.836Z,82
2022-11-20T12:11:54.053Z,82
2022-11-20T12:13:51.484Z,82
2022-11-20T12:15:51.404Z,82
2022-11-20T12:17:54.347Z,82
2022-11-20T12:19:56.026Z,82
2022-11-20T12:21:58.540Z,82
2022-11-20T12:23:51.138Z,81
2022-11-20T12:25:51.125Z,82
2022-11-20T12:29:51.453Z,82
2022-11-20T12:31:50.898Z,82
2022-11-20T12:33:51.362Z,82
2022-11-20T12:35:51.216Z,82
2022-11-20T12:37:53.576Z,82
2022-11-20T12:39:54.482Z,82
2022-11-20T12:41:51.523Z,82
2022-11-20T12:43:51.283Z,82
2022-11-20T12:45:51.468Z,82
2022-11-20T12:47:52.765Z,82
2022-11-20T12:49:51.493Z,82
2022-11-20T12:51:54.823Z,82
2022-11-20T12:53:51.423Z,82
2022-11-20T12:55:52.723Z,82
2022-11-20T12:57:51.547Z,82
2022-11-20T13:01:51.230Z,82
2022-11-20T13:03:51.311Z,82
2022-11-20T13:05:51.285Z,82
2022-11-20T13:07:51.456Z,83
2022-11-20T13:09:57.569Z,83
2022-11-20T13:11:51.484Z,82
2022-11-20T13:13:53.615Z,83
2022-11-20T13:15:52.617Z,83
2022-11-20T13:17:51.395Z,83
2022-11-20T13:19:51.554Z,83
2022-11-20T13:21:52.679Z,83
2022-11-20T13:23:51.434Z,83
2022-11-20T13:25:51.478Z,83
2022-11-20T13:27:51.586Z,83
2022-11-20T13:29:51.181Z,83
2022-11-20T13:31:51.397Z,83
2022-11-20T13:33:51.224Z,84
2022-11-20T13:35:51.385Z,83
2022-11-20T13:37:51.414Z,83
2022-11-20T13:41:53.678Z,83
2022-11-20T13:43:51.324Z,82
2022-11-20T13:45:51.563Z,82
2022-11-20T13:47:54.508Z,82
2022-11-20T13:51:51.328Z,82
2022-11-20T13:55:50.733Z,82
2022-11-20T13:57:57.504Z,82
2022-11-20T13:59:51.458Z,82
2022-11-20T14:01:50.979Z,83
2022-11-20T14:04:05.489Z,83
2022-11-20T14:05:53.333Z,82
2022-11-20T14:07:53.703Z,82
2022-11-20T14:09:53.070Z,82
2022-11-20T14:11:50.956Z,82
2022-11-20T14:13:52.247Z,82
2022-11-20T14:15:51.538Z,83
2022-11-20T14:17:51.559Z,83
2022-11-20T14:19:53.575Z,83
2022-11-20T14:21:51.482Z,83
2022-11-20T14:23:53.220Z,84
2022-11-20T14:25:51.448Z,84
2022-11-20T14:27:51.121Z,84
2022-11-20T14:29:52.276Z,84
2022-11-20T14:31:53.818Z,84
2022-11-20T14:33:50.963Z,85
2022-11-20T14:35:51.723Z,84
2022-11-20T14:37:54.590Z,84
2022-11-20T14:39:57.785Z,84
2022-11-20T14:41:51.412Z,84
2022-11-20T14:43:51.578Z,84
2022-11-20T14:45:53.060Z,85
2022-11-20T14:47:52.858Z,84
2022-11-20T14:49:51.509Z,84
2022-11-20T14:51:51.560Z,84
2022-11-20T14:53:52.365Z,84
2022-11-20T14:55:54.963Z,84
2022-11-20T14:57:51.175Z,84
2022-11-20T14:59:52.870Z,84
2022-11-20T15:01:52.952Z,84
2022-11-20T15:03:51.551Z,84
2022-11-20T15:05:51.439Z,84
2022-11-20T15:07:52.016Z,84
2022-11-20T15:09:51.110Z,84
2022-11-20T15:11:49.392Z,84
2022-11-20T15:13:54.415Z,84
2022-11-20T15:15:51.507Z,84
2022-11-20T15:17:52.640Z,84
2022-11-20T15:19:51.467Z,84
2022-11-20T15:21:53.199Z,84
2022-11-20T15:23:54.597Z,84
2022-11-20T15:25:51.505Z,84
2022-11-20T15:29:54.393Z,84
2022-11-20T15:31:51.095Z,84
2022-11-20T15:35:51.531Z,84
2022-11-20T15:37:53.803Z,84
2022-11-20T15:39:51.410Z,84
2022-11-20T15:41:54.410Z,84
2022-11-20T15:43:51.318Z,84
2022-11-20T15:45:52.536Z,84
2022-11-20T15:47:51.399Z,84
2022-11-20T15:49:53.810Z,84
2022-11-20T15:51:53.587Z,84
2022-11-20T15:53:51.036Z,84
2022-11-20T15:55:51.497Z,84
2022-11-20T15:57:51.464Z,84
2022-11-20T15:59:51.821Z,85
2022-11-20T16:01:52.945Z,85
2022-11-20T16:03:54.403Z,85
2022-11-20T16:05:50.918Z,85
2022-11-20T16:07:54.597Z,85
2022-11-20T16:09:53.917Z,85
2022-11-20T16:11:51.066Z,85
2022-11-20T16:13:51.426Z,85
2022-11-20T16:15:51.537Z,85
2022-11-20T16:17:54.584Z,86
2022-11-20T16:19:51.476Z,85
2022-11-20T16:21:51.131Z,85
2022-11-20T16:23:53.177Z,85
2022-11-20T16:25:54.129Z,86
2022-11-20T16:27:51.431Z,86
2022-11-20T16:29:54.678Z,86
2022-11-20T16:31:54.403Z,86
2022-11-20T16:33:51.411Z,86
2022-11-20T16:35:51.425Z,86
2022-11-20T16:37:51.454Z,86
2022-11-20T16:39:53.244Z,86
2022-11-20T16:41:51.452Z,87
2022-11-20T16:43:53.604Z,86
2022-11-20T16:45:51.496Z,86
2022-11-20T16:47:51.269Z,86
2022-11-20T16:49:54.335Z,86
2022-11-20T16:51:54.647Z,86
2022-11-20T16:53:51.398Z,86
2022-11-20T16:55:51.530Z,86
2022-11-20T16:57:51.337Z,86
2022-11-20T17:01:51.381Z,86
2022-11-20T17:03:51.315Z,86
2022-11-20T17:05:51.592Z,86
2022-11-20T17:07:51.660Z,86
2022-11-20T17:09:51.087Z,86
2022-11-20T17:11:51.602Z,86
2022-11-20T17:13:53.787Z,86
2022-11-20T17:15:51.601Z,86
2022-11-20T17:17:53.244Z,87
2022-11-20T17:19:54.853Z,87
2022-11-20T17:21:52.810Z,87
2022-11-20T17:23:51.425Z,86
2022-11-20T17:25:51.492Z,86
2022-11-20T17:27:51.519Z,86
2022-11-20T17:29:53.113Z,86
2022-11-20T17:31:53.374Z,86
2022-11-20T17:33:54.548Z,86
2022-11-20T17:35:53.151Z,86
2022-11-20T17:37:51.137Z,86
2022-11-20T17:39:52.649Z,86
2022-11-20T17:41:51.161Z,86
2022-11-20T17:43:51.022Z,86
2022-11-20T17:45:51.593Z,86
2022-11-20T17:47:54.299Z,87
2022-11-20T17:49:51.433Z,87
2022-11-20T17:51:55.217Z,87
2022-11-20T17:57:38.838Z,87
2022-11-20T17:59:49.750Z,87
2022-11-20T18:06:17.225Z,87
2022-11-20T18:11:49.003Z,87
2022-11-20T18:14:21.289Z,87
2022-11-20T18:23:04.090Z,87
2022-11-20T18:25:40.287Z,87
2022-11-20T18:27:38.585Z,87
2022-11-20T18:29:39.479Z,87
2022-11-20T18:33:39.968Z,87
2022-11-20T18:35:37.337Z,87
2022-11-20T18:37:40.443Z,87
2022-11-20T18:39:40.188Z,87
2022-11-20T18:41:39.546Z,87
2022-11-20T18:47:36.955Z,87
2022-11-20T18:49:40.000Z,87
2022-11-20T18:53:43.105Z,87
2022-11-20T18:57:40.012Z,87
2022-11-20T18:59:39.604Z,87
2022-11-20T19:03:39.831Z,87
2022-11-20T19:05:35.856Z,87
2022-11-20T19:07:40.410Z,87
2022-11-20T19:09:39.968Z,87
2022-11-20T19:11:39.486Z,87
2022-11-20T19:13:40.265Z,87
2022-11-20T19:15:39.984Z,87
2022-11-20T19:17:43.965Z,86
2022-11-20T19:27:40.086Z,86
2022-11-20T19:29:35.533Z,86
2022-11-20T19:31:40.313Z,87
2022-11-20T19:33:39.799Z,86
2022-11-20T19:35:38.084Z,86
2022-11-20T19:39:39.525Z,86
2022-11-20T19:41:37.366Z,86
2022-11-20T19:43:39.418Z,86
2022-11-20T19:48:06.451Z,86
2022-11-20T19:49:39.300Z,86
2022-11-20T19:51:39.925Z,86
2022-11-20T19:53:40.478Z,86
2022-11-20T19:55:40.543Z,86
2022-11-20T19:57:39.203Z,86
2022-11-20T19:59:39.013Z,86
2022-11-20T20:01:40.040Z,86
2022-11-20T20:03:39.339Z,86
2022-11-20T20:05:38.886Z,86
2022-11-20T20:11:39.738Z,86
2022-11-20T20:13:38.908Z,86
2022-11-20T20:17:36.870Z,86
2022-11-20T20:19:43.330Z,86
2022-11-20T20:21:39.737Z,86
2022-11-20T20:23:38.953Z,85
2022-11-20T20:25:39.892Z,85
2022-11-20T20:27:40.093Z,85
2022-11-20T20:29:35.829Z,85
2022-11-20T20:31:40.504Z,85
2022-11-20T20:33:40.541Z,85
2022-11-20T20:35:39.389Z,85
2022-11-20T20:37:39.343Z,85
2022-11-20T20:39:40.545Z,85
2022-11-20T20:41:39.420Z,85
2022-11-20T20:43:40.025Z,85
2022-11-20T20:45:40.568Z,85
2022-11-20T20:47:42.019Z,85
2022-11-20T20:51:43.658Z,85
2022-11-20T20:53:37.804Z,85
2022-11-20T20:55:37.444Z,86
2022-11-20T20:57:39.086Z,86
2022-11-20T20:59:36.649Z,86
2022-11-20T21:05:37.358Z,87
2022-11-20T21:09:40.313Z,87
2022-11-20T21:11:39.580Z,88
2022-11-20T21:13:39.462Z,88
2022-11-20T21:15:39.933Z,88
2022-11-20T21:17:40.210Z,88
2022-11-20T21:19:39.934Z,89
2022-11-20T21:23:40.850Z,89
2022-11-20T21:27:40.025Z,89
2022-11-20T21:29:37.300Z,89
2022-11-20T21:33:39.832Z,89
2022-11-20T21:35:37.891Z,89
2022-11-20T21:37:41.047Z,89
2022-11-20T21:39:39.855Z,89
2022-11-20T21:41:37.819Z,89
2022-11-20T21:47:37.296Z,89
2022-11-20T21:51:39.888Z,90
2022-11-20T21:53:39.390Z,90
2022-11-20T21:55:38.947Z,89
2022-11-20T21:57:39.539Z,90
2022-11-20T21:59:39.092Z,90
2022-11-20T22:01:39.089Z,90
2022-11-20T22:03:39.845Z,90
2022-11-20T22:05:37.335Z,89
2022-11-20T22:07:39.042Z,90
2022-11-20T22:11:39.545Z,89
2022-11-20T22:13:39.870Z,89
2022-11-20T22:15:59.621Z,89
2022-11-20T22:17:37.313Z,89
2022-11-20T22:19:40.265Z,89
2022-11-20T22:23:39.422Z,89
2022-11-20T22:25:39.870Z,89
2022-11-20T22:27:40.188Z,89
2022-11-20T22:29:39.841Z,89
2022-11-20T22:31:40.101Z,89
2022-11-20T22:35:38.300Z,89
2022-11-20T22:37:39.310Z,89
2022-11-20T22:39:39.626Z,89
2022-11-20T22:41:40.038Z,89
2022-11-20T22:43:39.885Z,89
2022-11-20T22:47:38.869Z,89
2022-11-20T22:49:40.089Z,89
2022-11-20T22:51:40.031Z,89
2022-11-20T22:53:37.370Z,89
2022-11-20T22:55:40.940Z,89
2022-11-20T22:57:39.771Z,89
2022-11-20T22:59:37.377Z,89
2022-11-20T23:01:41.424Z,89
2022-11-20T23:05:40.653Z,89
2022-11-20T23:07:41.171Z,89
2022-11-20T23:09:39.874Z,89
2022-11-20T23:11:40.773Z,89
2022-11-20T23:15:40.007Z,89
2022-11-20T23:17:37.367Z,89
2022-11-20T23:19:37.976Z,89
2022-11-20T23:21:40.213Z,89
2022-11-20T23:23:37.457Z,89
2022-11-20T23:27:38.802Z,89
2022-11-20T23:29:39.641Z,89
2022-11-20T23:31:38.707Z,89
2022-11-20T23:33:40.185Z,89
2022-11-20T23:35:40.518Z,89
2022-11-20T23:39:39.908Z,89
2022-11-20T23:41:37.460Z,89
2022-11-20T23:43:37.114Z,89
2022-11-20T23:45:39.963Z,89
2022-11-20T23:49:40.027Z,88
2022-11-20T23:51:40.279Z,89
2022-11-20T23:53:40.648Z,89
2022-11-20T23:55:39.476Z,88
2022-11-20T23:59:37.410Z,88
